Saint Louis, MO (63123)

10:10 AM CDT on September 03, 2015 (GMT -0500)
South County | | Change Station
CLOSE
Current Station
Personal Weather Station
Location: Affton, MO
Elevation: 480 ft
Nearby Weather Stations

Elev 480 ft 38.55 °N, 90.32 °W | Updated 2 seconds ago

Partly Cloudy
Partly Cloudy
84.9 °F
Feels Like 92 °F
N
0.0
Wind Variable Wind from WSW
Gusts 4.0 mph

Today
High -- | Low -- °F
--% Chance of Precip.
Yesterday
High -- | Low -- °F
Precip. -- in
6:32 AM 7:28 PM
Waning Gibbous, 69% visible
Pressure 29.99 in
Visibility 10.0 miles
Clouds Few 12000 ft
Scattered Clouds 20000 ft
Heat Index 92 °F
Dew Point 74 °F
Humidity 70%
Rainfall 0.00 in
Snow Depth Not available.
UV 4 out of 12
Pollen 11.20 out of 12
Air Quality Not available.
Flu Activity Not available.
METAR KSTL 031451Z VRB05KT 10SM FEW120 SCT200 31/21 A3003 RMK AO2 SLP153 T03060206 51004
Pressure 29.99 in
Visibility 10.0 miles
Clouds Few 12000 ft
Scattered Clouds 20000 ft
Heat Index 92 °F
Dew Point 74 °F
Humidity 70%
Rainfall 0.00 in
Snow Depth Not available.
UV 4 out of 12
Pollen 11.20 out of 12
Air Quality Not available.
Flu Activity Not available.
METAR KSTL 031451Z VRB05KT 10SM FEW120 SCT200 31/21 A3003 RMK AO2 SLP153 T03060206 51004

10-Day Weather Forecast

×

Almanac

Astronomy

Sep. 03, 2015 Rise Set
Actual Time
Civil Twilight
Nautical Twilight
Astronomical Twilight
Moon
Length of Visible Light
Length of Day
Tomorrow will be .
, % of the Moon is Illuminated

Today's Extremes

State Highs State Lows

Community

WunderPhotos

Upload Photos

1,851,972 photos uploaded!

WunderBlogs® & News

Nearby

Air Quality

  Air Quality AQ Index Pollutant
Not available.

Snow Depth

Station Depth Elevation

Earthquake Activity

City Distance Mag. Time & Date
Minimum magnitude displayed is 2.5.

Coastal Water Temperatures

Place Temperature

Stations

Nearby Weather Stations

Station Location Temp. Windchill Dew Point Humidity Wind Precip. Elev Updated Type